createdAt,value
2019-03-26T00:00:51.649Z,6.26
2019-03-26T00:05:55.111Z,6.29
2019-03-26T00:10:58.529Z,6.27
2019-03-26T00:16:01.972Z,6.39
2019-03-26T00:21:05.413Z,6.22
2019-03-26T00:26:08.833Z,6.24
2019-03-26T00:31:12.243Z,6.16
2019-03-26T00:36:15.688Z,6.21
2019-03-26T00:41:19.163Z,6.19
2019-03-26T00:46:22.640Z,6.16
2019-03-26T00:51:26.068Z,6.20
2019-03-26T00:56:29.496Z,6.32
2019-03-26T01:01:32.925Z,6.24
2019-03-26T01:06:36.530Z,6.30
2019-03-26T01:11:39.954Z,6.26
2019-03-26T01:16:43.501Z,6.23
2019-03-26T01:21:46.969Z,6.23
2019-03-26T01:26:50.388Z,6.20
2019-03-26T01:31:53.802Z,6.23
2019-03-26T01:36:57.334Z,6.26
2019-03-26T01:42:01.030Z,6.30
2019-03-26T01:47:04.458Z,6.34
2019-03-26T01:52:07.879Z,6.34
2019-03-26T01:57:11.304Z,6.36
2019-03-26T02:02:14.719Z,6.32
2019-03-26T02:07:18.144Z,6.37
2019-03-26T02:12:21.769Z,6.34
2019-03-26T02:17:25.198Z,6.27
2019-03-26T02:22:28.653Z,6.34
2019-03-26T02:27:32.077Z,6.33
2019-03-26T02:32:35.506Z,6.31
2019-03-26T02:37:38.934Z,6.29
2019-03-26T02:42:42.335Z,6.31
2019-03-26T02:47:45.822Z,6.30
2019-03-26T02:52:49.259Z,6.22
2019-03-26T02:57:52.674Z,6.33
2019-03-26T03:02:56.106Z,6.32
2019-03-26T03:07:59.545Z,6.23
2019-03-26T03:13:02.969Z,6.23
2019-03-26T03:18:06.395Z,6.20
2019-03-26T03:23:09.836Z,6.22
2019-03-26T03:28:13.269Z,6.26
2019-03-26T03:33:16.675Z,6.20
2019-03-26T03:38:20.110Z,6.24
2019-03-26T03:43:23.581Z,6.26
2019-03-26T03:48:27.451Z,6.28
2019-03-26T03:53:31.746Z,6.28
2019-03-26T03:58:36.827Z,6.31
2019-03-26T04:03:40.435Z,6.32
2019-03-26T04:08:43.942Z,6.28
2019-03-26T04:13:47.388Z,6.32
2019-03-26T04:18:50.831Z,6.41
2019-03-26T04:23:54.278Z,6.39
2019-03-26T04:28:57.723Z,6.39
2019-03-26T04:34:01.157Z,6.35
2019-03-26T04:39:06.113Z,6.32
2019-03-26T04:44:09.562Z,6.30
2019-03-26T04:49:12.980Z,6.36
2019-03-26T04:54:16.434Z,6.33
2019-03-26T04:59:19.873Z,6.32
2019-03-26T05:04:23.295Z,6.32
2019-03-26T05:09:26.782Z,6.21
2019-03-26T05:14:30.227Z,6.29
2019-03-26T05:19:33.750Z,6.23
2019-03-26T05:24:37.173Z,6.24
2019-03-26T05:29:40.586Z,6.25
2019-03-26T05:34:44.053Z,6.30
2019-03-26T05:39:47.478Z,6.23
2019-03-26T05:44:50.902Z,6.27
2019-03-26T05:49:54.328Z,6.24
2019-03-26T05:54:57.816Z,6.28
2019-03-26T06:00:01.243Z,6.28
2019-03-26T06:05:07.014Z,6.41
2019-03-26T06:10:11.325Z,6.45
2019-03-26T06:15:15.578Z,6.53
2019-03-26T06:20:19.083Z,6.55
2019-03-26T06:25:22.507Z,6.61
2019-03-26T06:30:26.431Z,6.65
2019-03-26T06:35:29.814Z,6.63
2019-03-26T06:40:33.305Z,6.67
2019-03-26T06:45:36.781Z,6.75
2019-03-26T06:50:40.248Z,6.79
2019-03-26T06:55:43.659Z,6.84
2019-03-26T07:00:47.139Z,6.72
2019-03-26T07:05:50.564Z,6.83
2019-03-26T07:10:53.980Z,6.99
2019-03-26T07:15:57.403Z,7.02
2019-03-26T07:21:00.843Z,7.14
2019-03-26T07:26:04.338Z,7.12
2019-03-26T07:31:08.120Z,7.25
2019-03-26T07:36:11.538Z,7.04
2019-03-26T07:41:14.981Z,6.90
2019-03-26T07:46:18.394Z,6.90
2019-03-26T07:51:21.813Z,7.14
2019-03-26T07:56:25.232Z,7.22
2019-03-26T08:01:28.654Z,7.23
2019-03-26T08:06:32.085Z,7.59
2019-03-26T08:11:35.515Z,7.96
2019-03-26T08:16:38.936Z,7.97
2019-03-26T08:21:42.356Z,8.43
2019-03-26T08:26:45.814Z,8.67
2019-03-26T08:31:49.239Z,8.75
2019-03-26T08:36:53.037Z,8.84
2019-03-26T08:41:56.480Z,8.93
2019-03-26T08:46:59.911Z,9.09
2019-03-26T08:52:03.424Z,9.04
2019-03-26T08:57:06.843Z,9.16
2019-03-26T09:02:10.375Z,9.10
2019-03-26T09:07:13.786Z,8.92
2019-03-26T09:12:18.811Z,8.66
2019-03-26T09:17:23.001Z,8.73
2019-03-26T09:22:26.484Z,8.61
2019-03-26T09:27:29.895Z,8.46
2019-03-26T09:32:33.336Z,8.53
2019-03-26T09:37:36.758Z,8.52
2019-03-26T09:42:40.446Z,8.41
2019-03-26T09:47:43.900Z,8.34
2019-03-26T09:52:47.334Z,8.23
2019-03-26T09:57:50.823Z,8.36
2019-03-26T10:02:54.320Z,8.26
2019-03-26T10:07:57.732Z,8.61
2019-03-26T10:13:01.140Z,8.73
2019-03-26T10:18:04.696Z,9.12
2019-03-26T10:23:08.114Z,9.07
2019-03-26T10:28:11.522Z,9.24
2019-03-26T10:33:15.023Z,9.46
2019-03-26T10:38:18.442Z,9.15
2019-03-26T10:43:21.944Z,9.25
2019-03-26T10:48:25.384Z,9.03
2019-03-26T10:53:28.824Z,9.12
2019-03-26T10:58:32.401Z,9.68
2019-03-26T11:03:35.800Z,9.94
2019-03-26T11:08:39.230Z,10.15
2019-03-26T11:13:42.658Z,10.20
2019-03-26T11:18:46.080Z,9.90
2019-03-26T11:23:49.492Z,9.76
2019-03-26T11:28:53.266Z,10.16
2019-03-26T11:33:57.020Z,10.20
2019-03-26T11:39:00.501Z,10.62
2019-03-26T11:44:04.876Z,10.46
2019-03-26T11:49:08.496Z,10.29
2019-03-26T11:54:11.935Z,10.18
2019-03-26T11:59:15.434Z,10.15
2019-03-26T12:04:19.086Z,9.96
2019-03-26T12:09:22.516Z,9.99
2019-03-26T12:14:25.931Z,9.73
2019-03-26T12:19:29.349Z,9.13
2019-03-26T12:24:32.798Z,8.94
2019-03-26T12:29:36.227Z,8.74
2019-03-26T12:34:39.654Z,8.62
2019-03-26T12:39:44.298Z,8.54
2019-03-26T12:44:47.995Z,8.65
2019-03-26T12:49:51.431Z,8.42
2019-03-26T12:54:54.926Z,8.56
2019-03-26T12:59:58.363Z,8.84
2019-03-26T13:05:01.837Z,8.98
2019-03-26T13:10:13.827Z,9.05
2019-03-26T13:15:14.833Z,9.03
2019-03-26T13:20:18.306Z,9.28
2019-03-26T13:25:21.712Z,9.27
2019-03-26T13:30:25.204Z,9.23
2019-03-26T13:35:28.647Z,9.33
2019-03-26T13:40:32.056Z,9.41
2019-03-26T13:45:35.475Z,9.45
2019-03-26T13:50:38.958Z,9.67
2019-03-26T13:55:42.399Z,9.68
2019-03-26T14:00:46.049Z,9.58
2019-03-26T14:05:49.437Z,9.48
2019-03-26T14:10:52.840Z,9.14
2019-03-26T14:15:56.256Z,8.87
2019-03-26T14:20:59.682Z,8.92
2019-03-26T14:26:03.229Z,8.81
2019-03-26T14:31:06.687Z,8.62
2019-03-26T14:36:10.134Z,8.73
2019-03-26T14:41:13.559Z,8.64
2019-03-26T14:46:16.957Z,8.69
2019-03-26T14:51:22.873Z,8.73
2019-03-26T14:56:25.540Z,8.76
2019-03-26T15:01:29.062Z,8.81
2019-03-26T15:06:32.471Z,8.85
2019-03-26T15:11:35.899Z,8.85
2019-03-26T15:16:39.487Z,8.86
2019-03-26T15:21:42.906Z,8.86
2019-03-26T15:26:47.386Z,8.86
2019-03-26T15:31:50.833Z,8.76
2019-03-26T15:36:54.432Z,8.77
2019-03-26T15:41:57.870Z,8.72
2019-03-26T15:47:01.285Z,8.67
2019-03-26T15:52:04.711Z,8.59
2019-03-26T15:57:08.136Z,8.68
2019-03-26T16:02:11.582Z,8.70
2019-03-26T16:07:15.025Z,8.69
2019-03-26T16:12:18.455Z,8.63
2019-03-26T16:17:21.961Z,8.66
2019-03-26T16:22:25.372Z,8.57
2019-03-26T16:27:28.974Z,8.60
2019-03-26T16:32:33.272Z,8.65
2019-03-26T16:37:36.708Z,8.73
2019-03-26T16:42:40.126Z,8.78
2019-03-26T16:47:43.551Z,8.75
2019-03-26T16:52:49.941Z,8.81
2019-03-26T16:57:55.731Z,8.80
2019-03-26T17:03:00.527Z,8.83
2019-03-26T17:08:04.007Z,8.84
2019-03-26T17:13:09.069Z,8.81
2019-03-26T17:18:12.499Z,8.81
2019-03-26T17:23:15.917Z,8.78
2019-03-26T17:28:19.329Z,8.77
2019-03-26T17:33:22.786Z,8.69
2019-03-26T17:38:26.195Z,8.73
2019-03-26T17:43:29.631Z,8.70
2019-03-26T17:48:33.255Z,8.69
2019-03-26T17:53:36.797Z,8.47
2019-03-26T17:58:40.309Z,8.40
2019-03-26T18:03:43.741Z,8.13
2019-03-26T18:08:47.172Z,8.15
2019-03-26T18:13:50.601Z,8.20
2019-03-26T18:18:56.448Z,8.17
2019-03-26T18:24:00.412Z,8.24
2019-03-26T18:29:03.931Z,8.26
2019-03-26T18:34:07.421Z,8.27
2019-03-26T18:39:10.949Z,8.27
2019-03-26T18:44:17.088Z,8.26
2019-03-26T18:49:23.597Z,8.23
2019-03-26T18:54:27.054Z,8.21
2019-03-26T18:59:30.558Z,8.16
2019-03-26T19:04:48.412Z,8.14
2019-03-26T19:09:41.092Z,8.14
2019-03-26T19:14:47.182Z,8.18
2019-03-26T19:19:51.540Z,8.16
2019-03-26T19:25:01.017Z,8.11
2019-03-26T19:30:20.950Z,8.09
2019-03-26T19:35:25.512Z,8.07
2019-03-26T19:40:41.166Z,8.07
2019-03-26T19:45:46.177Z,8.08
2019-03-26T19:50:59.099Z,8.08
2019-03-26T19:56:05.589Z,8.11
2019-03-26T20:01:10.540Z,8.09
2019-03-26T20:06:14.254Z,8.12
2019-03-26T20:11:17.706Z,8.13
2019-03-26T20:16:27.254Z,8.13
2019-03-26T20:21:35.570Z,8.07
2019-03-26T20:26:40.822Z,7.99
2019-03-26T20:31:52.010Z,8.05
2019-03-26T20:36:58.618Z,8.00
2019-03-26T20:42:02.452Z,8.06
2019-03-26T20:47:06.107Z,8.07
2019-03-26T20:52:09.656Z,8.05
2019-03-26T20:57:18.348Z,7.97
2019-03-26T21:02:21.882Z,7.97
2019-03-26T21:07:32.224Z,7.91
2019-03-26T21:12:35.739Z,7.81
2019-03-26T21:17:47.914Z,7.75
2019-03-26T21:22:51.706Z,7.74
2019-03-26T21:27:55.134Z,7.69
2019-03-26T21:32:58.563Z,7.67
2019-03-26T21:38:02.001Z,7.65
2019-03-26T21:43:05.420Z,7.61
2019-03-26T21:48:09.284Z,7.62
2019-03-26T21:53:12.810Z,7.64
2019-03-26T21:58:16.410Z,7.59
2019-03-26T22:03:21.817Z,7.54
2019-03-26T22:08:25.206Z,7.50
2019-03-26T22:13:29.235Z,7.44
2019-03-26T22:18:32.646Z,7.36
2019-03-26T22:23:36.090Z,7.25
2019-03-26T22:28:39.533Z,7.19
2019-03-26T22:33:43.037Z,7.15
2019-03-26T22:38:46.460Z,7.06
2019-03-26T22:43:49.923Z,6.96
2019-03-26T22:48:53.365Z,6.89
2019-03-26T22:53:56.883Z,6.81
2019-03-26T22:59:00.291Z,6.67
2019-03-26T23:04:03.724Z,6.58
2019-03-26T23:09:08.001Z,6.41
2019-03-26T23:14:11.531Z,6.39
2019-03-26T23:19:14.949Z,6.39
2019-03-26T23:24:18.373Z,6.37
2019-03-26T23:29:21.831Z,6.37
2019-03-26T23:34:25.266Z,6.36
2019-03-26T23:39:28.677Z,6.36
2019-03-26T23:44:32.110Z,6.33
2019-03-26T23:49:35.536Z,6.31
2019-03-26T23:54:38.973Z,6.26
2019-03-26T23:59:42.457Z,6.25
